sensor_id;sensor_type;location;lat;lon;timestamp;pressure;altitude;pressure_sealevel;temperature;humidity
79455;BME280;68900;52.134;5.420;2024-01-30T00:01:02;102758.81;;;6.10;100.00
79455;BME280;68900;52.134;5.420;2024-01-30T00:03:29;102762.38;;;6.11;100.00
79455;BME280;68900;52.134;5.420;2024-01-30T00:05:56;102754.34;;;6.11;100.00
79455;BME280;68900;52.134;5.420;2024-01-30T00:08:25;102765.16;;;6.09;100.00
79455;BME280;68900;52.134;5.420;2024-01-30T00:10:55;102765.22;;;6.08;100.00
79455;BME280;68900;52.134;5.420;2024-01-30T00:13:30;102758.97;;;6.07;100.00
79455;BME280;68900;52.134;5.420;2024-01-30T00:15:57;102758.97;;;6.07;100.00
79455;BME280;68900;52.134;5.420;2024-01-30T00:18:25;102761.81;;;6.04;100.00
79455;BME280;68900;52.134;5.420;2024-01-30T00:20:52;102764.56;;;6.03;100.00
79455;BME280;68900;52.134;5.420;2024-01-30T00:23:19;102759.28;;;6.01;100.00
79455;BME280;68900;52.134;5.420;2024-01-30T00:25:45;102765.66;;;5.99;100.00
79455;BME280;68900;52.134;5.420;2024-01-30T00:28:12;102759.50;;;5.97;100.00
79455;BME280;68900;52.134;5.420;2024-01-30T00:30:38;102764.16;;;5.93;100.00
79455;BME280;68900;52.134;5.420;2024-01-30T00:33:05;102761.47;;;5.93;100.00
79455;BME280;68900;52.134;5.420;2024-01-30T00:35:31;102758.94;;;5.90;100.00
79455;BME280;68900;52.134;5.420;2024-01-30T00:37:58;102753.59;;;5.90;100.00
79455;BME280;68900;52.134;5.420;2024-01-30T00:40:24;102754.47;;;5.91;100.00
79455;BME280;68900;52.134;5.420;2024-01-30T00:42:51;102756.34;;;5.89;100.00
79455;BME280;68900;52.134;5.420;2024-01-30T00:45:18;102745.72;;;5.87;100.00
79455;BME280;68900;52.134;5.420;2024-01-30T00:47:44;102751.97;;;5.86;100.00
79455;BME280;68900;52.134;5.420;2024-01-30T00:50:11;102749.28;;;5.86;100.00
79455;BME280;68900;52.134;5.420;2024-01-30T00:52:37;102748.47;;;5.84;100.00
79455;BME280;68900;52.134;5.420;2024-01-30T00:55:06;102748.56;;;5.83;100.00
79455;BME280;68900;52.134;5.420;2024-01-30T00:57:32;102751.97;;;5.86;100.00
79455;BME280;68900;52.134;5.420;2024-01-30T00:59:59;102760.06;;;5.85;100.00
79455;BME280;68900;52.134;5.420;2024-01-30T01:02:25;102750.97;;;5.89;100.00
79455;BME280;68900;52.134;5.420;2024-01-30T01:04:52;102749.28;;;5.86;100.00
79455;BME280;68900;52.134;5.420;2024-01-30T01:07:18;102742.25;;;5.84;100.00
79455;BME280;68900;52.134;5.420;2024-01-30T01:09:45;102747.56;;;5.85;100.00
79455;BME280;68900;52.134;5.420;2024-01-30T01:12:12;102745.97;;;5.81;100.00
79455;BME280;68900;52.134;5.420;2024-01-30T01:14:38;102743.28;;;5.81;100.00
79455;BME280;68900;52.134;5.420;2024-01-30T01:17:08;102745.16;;;5.79;100.00
79455;BME280;68900;52.134;5.420;2024-01-30T01:19:34;102738.94;;;5.78;100.00
79455;BME280;68900;52.134;5.420;2024-01-30T01:22:01;102741.53;;;5.80;100.00
79455;BME280;68900;52.134;5.420;2024-01-30T01:24:27;102729.97;;;5.79;100.00
79455;BME280;68900;52.134;5.420;2024-01-30T01:26:54;102725.31;;;5.83;100.00
79455;BME280;68900;52.134;5.420;2024-01-30T01:29:20;102715.28;;;5.88;100.00
79455;BME280;68900;52.134;5.420;2024-01-30T01:31:55;102711.44;;;5.94;100.00
79455;BME280;68900;52.134;5.420;2024-01-30T01:34:23;102706.78;;;5.97;100.00
79455;BME280;68900;52.134;5.420;2024-01-30T01:36:57;102721.94;;;5.98;100.00
79455;BME280;68900;52.134;5.420;2024-01-30T01:39:24;102714.06;;;5.95;100.00
79455;BME280;68900;52.134;5.420;2024-01-30T01:41:51;102720.28;;;5.96;100.00
79455;BME280;68900;52.134;5.420;2024-01-30T01:44:18;102709.56;;;5.96;100.00
79455;BME280;68900;52.134;5.420;2024-01-30T01:46:45;102717.66;;;5.94;100.00
79455;BME280;68900;52.134;5.420;2024-01-30T01:49:12;102713.19;;;5.95;100.00
79455;BME280;68900;52.134;5.420;2024-01-30T01:51:39;102719.47;;;5.94;100.00
79455;BME280;68900;52.134;5.420;2024-01-30T01:54:08;102714.84;;;5.97;100.00
79455;BME280;68900;52.134;5.420;2024-01-30T01:56:35;102721.00;;;5.99;100.00
79455;BME280;68900;52.134;5.420;2024-01-30T01:59:06;102719.31;;;5.97;100.00
79455;BME280;68900;52.134;5.420;2024-01-30T02:01:36;102715.06;;;5.93;100.00
79455;BME280;68900;52.134;5.420;2024-01-30T02:04:03;102717.84;;;5.91;100.00
79455;BME280;68900;52.134;5.420;2024-01-30T02:06:32;102720.56;;;5.90;100.00
79455;BME280;68900;52.134;5.420;2024-01-30T02:08:58;102714.47;;;5.86;100.00
79455;BME280;68900;52.134;5.420;2024-01-30T02:11:25;102713.59;;;5.86;100.00
79455;BME280;68900;52.134;5.420;2024-01-30T02:13:52;102710.03;;;5.87;100.00
79455;BME280;68900;52.134;5.420;2024-01-30T02:16:19;102709.13;;;5.86;100.00
79455;BME280;68900;52.134;5.420;2024-01-30T02:18:45;102702.00;;;5.87;100.00
79455;BME280;68900;52.134;5.420;2024-01-30T02:21:15;102702.84;;;5.87;100.00
79455;BME280;68900;52.134;5.420;2024-01-30T02:23:47;102704.66;;;5.87;100.00
79455;BME280;68900;52.134;5.420;2024-01-30T02:26:20;102703.56;;;5.91;100.00
79455;BME280;68900;52.134;5.420;2024-01-30T02:28:49;102710.56;;;5.93;100.00
79455;BME280;68900;52.134;5.420;2024-01-30T02:31:15;102718.84;;;5.89;100.00
79455;BME280;68900;52.134;5.420;2024-01-30T02:33:42;102717.09;;;5.88;100.00
79455;BME280;68900;52.134;5.420;2024-01-30T02:36:08;102717.97;;;5.88;100.00
79455;BME280;68900;52.134;5.420;2024-01-30T02:38:35;102717.84;;;5.91;100.00
79455;BME280;68900;52.134;5.420;2024-01-30T02:41:01;102714.19;;;5.92;100.00
79455;BME280;68900;52.134;5.420;2024-01-30T02:43:30;102708.94;;;5.91;100.00
79455;BME280;68900;52.134;5.420;2024-01-30T02:45:57;102712.47;;;5.91;100.00
79455;BME280;68900;52.134;5.420;2024-01-30T02:48:24;102710.72;;;5.90;100.00
79455;BME280;68900;52.134;5.420;2024-01-30T02:50:53;102705.44;;;5.89;100.00
79455;BME280;68900;52.134;5.420;2024-01-30T02:53:37;102704.44;;;5.91;100.00
79455;BME280;68900;52.134;5.420;2024-01-30T02:56:03;102686.41;;;5.95;100.00
79455;BME280;68900;52.134;5.420;2024-01-30T02:58:35;102697.13;;;5.95;100.00
79455;BME280;68900;52.134;5.420;2024-01-30T03:01:04;102692.75;;;5.92;100.00
79455;BME280;68900;52.134;5.420;2024-01-30T03:03:31;102691.06;;;5.91;100.00
79455;BME280;68900;52.134;5.420;2024-01-30T03:05:58;102687.56;;;5.89;100.00
79455;BME280;68900;52.134;5.420;2024-01-30T03:08:24;102684.13;;;5.87;100.00
79455;BME280;68900;52.134;5.420;2024-01-30T03:10:51;102683.25;;;5.87;100.00
79455;BME280;68900;52.134;5.420;2024-01-30T03:13:17;102681.47;;;5.86;100.00
79455;BME280;68900;52.134;5.420;2024-01-30T03:15:44;102677.78;;;5.88;100.00
79455;BME280;68900;52.134;5.420;2024-01-30T03:18:11;102671.50;;;5.89;100.00
79455;BME280;68900;52.134;5.420;2024-01-30T03:20:37;102667.88;;;5.90;100.00
79455;BME280;68900;52.134;5.420;2024-01-30T03:23:04;102659.84;;;5.90;100.00
79455;BME280;68900;52.134;5.420;2024-01-30T03:25:31;102663.41;;;5.91;100.00
79455;BME280;68900;52.134;5.420;2024-01-30T03:27:58;102658.03;;;5.91;100.00
79455;BME280;68900;52.134;5.420;2024-01-30T03:30:27;102669.69;;;5.90;100.00
79455;BME280;68900;52.134;5.420;2024-01-30T03:32:54;102673.16;;;5.92;100.00
79455;BME280;68900;52.134;5.420;2024-01-30T03:35:23;102676.63;;;5.94;100.00
79455;BME280;68900;52.134;5.420;2024-01-30T03:37:49;102673.06;;;5.93;100.00
79455;BME280;68900;52.134;5.420;2024-01-30T03:40:16;102661.44;;;5.94;100.00
79455;BME280;68900;52.134;5.420;2024-01-30T03:42:42;102657.72;;;5.97;100.00
79455;BME280;68900;52.134;5.420;2024-01-30T03:45:09;102655.91;;;5.97;100.00
79455;BME280;68900;52.134;5.420;2024-01-30T03:47:36;102655.91;;;5.97;100.00
79455;BME280;68900;52.134;5.420;2024-01-30T03:50:02;102654.91;;;6.00;100.00
79455;BME280;68900;52.134;5.420;2024-01-30T03:52:31;102641.41;;;6.01;100.00
79455;BME280;68900;52.134;5.420;2024-01-30T03:54:57;102652.94;;;6.03;100.00
79455;BME280;68900;52.134;5.420;2024-01-30T03:57:24;102649.06;;;6.09;100.00
79455;BME280;68900;52.134;5.420;2024-01-30T03:59:50;102642.63;;;6.13;100.00
79455;BME280;68900;52.134;5.420;2024-01-30T04:02:18;102638.75;;;6.18;100.00
79455;BME280;68900;52.134;5.420;2024-01-30T04:04:45;102650.25;;;6.20;100.00
79455;BME280;68900;52.134;5.420;2024-01-30T04:07:11;102649.38;;;6.20;100.00
79455;BME280;68900;52.134;5.420;2024-01-30T04:09:38;102657.34;;;6.21;100.00
79455;BME280;68900;52.134;5.420;2024-01-30T04:12:08;102664.28;;;6.26;100.00
79455;BME280;68900;52.134;5.420;2024-01-30T04:14:34;102658.06;;;6.25;100.00
79455;BME280;68900;52.134;5.420;2024-01-30T04:17:01;102660.59;;;6.28;100.00
79455;BME280;68900;52.134;5.420;2024-01-30T04:19:28;102658.78;;;6.29;100.00
79455;BME280;68900;52.134;5.420;2024-01-30T04:21:55;102667.59;;;6.31;100.00
79455;BME280;68900;52.134;5.420;2024-01-30T04:24:21;102651.50;;;6.31;100.00
79455;BME280;68900;52.134;5.420;2024-01-30T04:26:48;102652.31;;;6.33;100.00
79455;BME280;68900;52.134;5.420;2024-01-30T04:29:27;102648.53;;;6.37;100.00
79455;BME280;68900;52.134;5.420;2024-01-30T04:31:53;102641.25;;;6.39;100.00
79455;BME280;68900;52.134;5.420;2024-01-30T04:34:23;102641.88;;;6.44;100.00
79455;BME280;68900;52.134;5.420;2024-01-30T04:36:49;102628.34;;;6.47;100.00
79455;BME280;68900;52.134;5.420;2024-01-30T04:39:16;102627.38;;;6.48;100.00
79455;BME280;68900;52.134;5.420;2024-01-30T04:41:45;102631.53;;;6.53;100.00
79455;BME280;68900;52.134;5.420;2024-01-30T04:44:12;102627.06;;;6.54;100.00
79455;BME280;68900;52.134;5.420;2024-01-30T04:46:41;102619.06;;;6.52;100.00
79455;BME280;68900;52.134;5.420;2024-01-30T04:49:07;102610.09;;;6.53;100.00
79455;BME280;68900;52.134;5.420;2024-01-30T04:51:34;102626.19;;;6.53;100.00
79455;BME280;68900;52.134;5.420;2024-01-30T04:54:00;102623.44;;;6.55;100.00
79455;BME280;68900;52.134;5.420;2024-01-30T04:56:27;102629.66;;;6.55;100.00
79455;BME280;68900;52.134;5.420;2024-01-30T04:58:56;102627.84;;;6.56;100.00
79455;BME280;68900;52.134;5.420;2024-01-30T05:01:23;102629.66;;;6.55;100.00
79455;BME280;68900;52.134;5.420;2024-01-30T05:03:49;102636.66;;;6.58;100.00
79455;BME280;68900;52.134;5.420;2024-01-30T05:06:28;102633.13;;;6.57;100.00
79455;BME280;68900;52.134;5.420;2024-01-30T05:08:55;102627.84;;;6.56;100.00
79455;BME280;68900;52.134;5.420;2024-01-30T05:11:38;102626.75;;;6.60;100.00
79455;BME280;68900;52.134;5.420;2024-01-30T05:14:08;102623.94;;;6.61;100.00
79455;BME280;68900;52.134;5.420;2024-01-30T05:16:38;102621.19;;;6.63;100.00
79455;BME280;68900;52.134;5.420;2024-01-30T05:19:04;102628.22;;;6.65;100.00
79455;BME280;68900;52.134;5.420;2024-01-30T05:21:31;102633.34;;;6.70;100.00
79455;BME280;68900;52.134;5.420;2024-01-30T05:23:58;102624.31;;;6.71;100.00
79455;BME280;68900;52.134;5.420;2024-01-30T05:26:24;102621.56;;;6.73;100.00
79455;BME280;68900;52.134;5.420;2024-01-30T05:28:51;102610.66;;;6.76;100.00
79455;BME280;68900;52.134;5.420;2024-01-30T05:31:17;102603.41;;;6.78;100.00
79455;BME280;68900;52.134;5.420;2024-01-30T05:33:44;102607.75;;;6.80;100.00
79455;BME280;68900;52.134;5.420;2024-01-30T05:36:12;102598.50;;;6.86;100.00
79455;BME280;68900;52.134;5.420;2024-01-30T05:38:39;102601.88;;;6.89;100.00
79455;BME280;68900;52.134;5.420;2024-01-30T05:41:06;102601.88;;;6.89;100.00
79455;BME280;68900;52.134;5.420;2024-01-30T05:43:32;102607.22;;;6.89;100.00
79455;BME280;68900;52.134;5.420;2024-01-30T05:45:59;102623.25;;;6.91;100.00
79455;BME280;68900;52.134;5.420;2024-01-30T05:48:26;102624.81;;;6.95;100.00
79455;BME280;68900;52.134;5.420;2024-01-30T05:50:52;102609.41;;;6.98;100.00
79455;BME280;68900;52.134;5.420;2024-01-30T05:53:19;102605.78;;;6.99;100.00
79455;BME280;68900;52.134;5.420;2024-01-30T05:55:45;102612.97;;;6.99;100.00
79455;BME280;68900;52.134;5.420;2024-01-30T05:58:12;102616.63;;;6.98;100.00
79455;BME280;68900;52.134;5.420;2024-01-30T06:00:38;102615.75;;;6.97;100.00
79455;BME280;68900;52.134;5.420;2024-01-30T06:03:05;102614.78;;;6.98;100.00
79455;BME280;68900;52.134;5.420;2024-01-30T06:05:32;102630.88;;;6.98;100.00
79455;BME280;68900;52.134;5.420;2024-01-30T06:07:59;102621.81;;;7.01;100.00
79455;BME280;68900;52.134;5.420;2024-01-30T06:10:25;102622.69;;;7.01;100.00
79455;BME280;68900;52.134;5.420;2024-01-30T06:12:52;102624.41;;;7.02;100.00
79455;BME280;68900;52.134;5.420;2024-01-30T06:15:18;102619.88;;;7.03;100.00
79455;BME280;68900;52.134;5.420;2024-01-30T06:17:45;102622.31;;;7.07;100.00
79455;BME280;68900;52.134;5.420;2024-01-30T06:20:11;102613.25;;;7.10;100.00
79455;BME280;68900;52.134;5.420;2024-01-30T06:22:38;102634.63;;;7.12;100.00
79455;BME280;68900;52.134;5.420;2024-01-30T06:25:05;102617.56;;;7.13;100.00
79455;BME280;68900;52.134;5.420;2024-01-30T06:27:34;102616.47;;;7.17;100.00
79455;BME280;68900;52.134;5.420;2024-01-30T06:30:01;102611.09;;;7.17;100.00
79455;BME280;68900;52.134;5.420;2024-01-30T06:32:28;102620.84;;;7.18;100.00
79455;BME280;68900;52.134;5.420;2024-01-30T06:34:55;102617.22;;;7.19;100.00
79455;BME280;68900;52.134;5.420;2024-01-30T06:37:22;102626.34;;;7.16;100.00
79455;BME280;68900;52.134;5.420;2024-01-30T06:39:48;102621.84;;;7.17;100.00
79455;BME280;68900;52.134;5.420;2024-01-30T06:42:15;102623.47;;;7.19;100.00
79455;BME280;68900;52.134;5.420;2024-01-30T06:44:42;102635.06;;;7.20;100.00
79455;BME280;68900;52.134;5.420;2024-01-30T06:47:08;102627.78;;;7.22;100.00
79455;BME280;68900;52.134;5.420;2024-01-30T06:49:35;102644.75;;;7.22;100.00
79455;BME280;68900;52.134;5.420;2024-01-30T06:52:06;102636.63;;;7.24;100.00
79455;BME280;68900;52.134;5.420;2024-01-30T06:54:32;102632.06;;;7.26;100.00
79455;BME280;68900;52.134;5.420;2024-01-30T06:56:59;102621.31;;;7.26;100.00
79455;BME280;68900;52.134;5.420;2024-01-30T06:59:34;102634.56;;;7.29;100.00
79455;BME280;68900;52.134;5.420;2024-01-30T07:02:03;102635.31;;;7.31;100.00
79455;BME280;68900;52.134;5.420;2024-01-30T07:04:30;102635.16;;;7.34;100.00
79455;BME280;68900;52.134;5.420;2024-01-30T07:06:58;102636.72;;;7.38;100.00
79455;BME280;68900;52.134;5.420;2024-01-30T07:09:26;102635.78;;;7.39;100.00
79455;BME280;68900;52.134;5.420;2024-01-30T07:11:56;102640.16;;;7.40;100.00
79455;BME280;68900;52.134;5.420;2024-01-30T07:14:25;102629.44;;;7.40;100.00
79455;BME280;68900;52.134;5.420;2024-01-30T07:16:51;102639.22;;;7.41;100.00
79455;BME280;68900;52.134;5.420;2024-01-30T07:19:18;102644.59;;;7.41;100.00
79455;BME280;68900;52.134;5.420;2024-01-30T07:21:47;102637.50;;;7.40;100.00
79455;BME280;68900;52.134;5.420;2024-01-30T07:24:14;102638.34;;;7.40;100.00
79455;BME280;68900;52.134;5.420;2024-01-30T07:26:40;102655.44;;;7.39;100.00
79455;BME280;68900;52.134;5.420;2024-01-30T07:29:07;102638.28;;;7.42;100.00
79455;BME280;68900;52.134;5.420;2024-01-30T07:31:33;102653.44;;;7.43;100.00
79455;BME280;68900;52.134;5.420;2024-01-30T07:34:00;102649.81;;;7.44;100.00
79455;BME280;68900;52.134;5.420;2024-01-30T07:36:27;102656.56;;;7.51;100.00
79455;BME280;68900;52.134;5.420;2024-01-30T07:38:53;102658.28;;;7.52;100.00
79455;BME280;68900;52.134;5.420;2024-01-30T07:41:21;102664.59;;;7.51;100.00
79455;BME280;68900;52.134;5.420;2024-01-30T07:43:47;102663.66;;;7.52;100.00
79455;BME280;68900;52.134;5.420;2024-01-30T07:46:14;102660.78;;;7.55;100.00
79455;BME280;68900;52.134;5.420;2024-01-30T07:48:40;102665.81;;;7.61;100.00
79455;BME280;68900;52.134;5.420;2024-01-30T07:51:07;102664.00;;;7.62;100.00
79455;BME280;68900;52.134;5.420;2024-01-30T07:53:34;102668.44;;;7.63;100.00
79455;BME280;68900;52.134;5.420;2024-01-30T07:56:00;102671.88;;;7.65;100.00
79455;BME280;68900;52.134;5.420;2024-01-30T07:58:27;102670.75;;;7.69;100.00
79455;BME280;68900;52.134;5.420;2024-01-30T08:00:54;102671.44;;;7.72;100.00
79455;BME280;68900;52.134;5.420;2024-01-30T08:03:23;102683.75;;;7.76;100.00
79455;BME280;68900;52.134;5.420;2024-01-30T08:05:50;102674.56;;;7.80;100.00
79455;BME280;68900;52.134;5.420;2024-01-30T08:08:16;102682.25;;;7.86;100.00
79455;BME280;68900;52.134;5.420;2024-01-30T08:10:46;102679.22;;;7.92;100.00
79455;BME280;68900;52.134;5.420;2024-01-30T08:13:42;102678.97;;;7.97;100.00
79455;BME280;68900;52.134;5.420;2024-01-30T08:16:09;102676.00;;;8.02;100.00
79455;BME280;68900;52.134;5.420;2024-01-30T08:18:43;102673.03;;;8.06;100.00
79455;BME280;68900;52.134;5.420;2024-01-30T08:21:10;102672.88;;;8.09;100.00
79455;BME280;68900;52.134;5.420;2024-01-30T08:23:38;102670.97;;;8.11;100.00
79455;BME280;68900;52.134;5.420;2024-01-30T08:26:08;102675.09;;;8.17;100.00
79455;BME280;68900;52.134;5.420;2024-01-30T08:28:40;102680.28;;;8.20;100.00
79455;BME280;68900;52.134;5.420;2024-01-30T08:31:20;102680.03;;;8.24;100.00
79455;BME280;68900;52.134;5.420;2024-01-30T08:33:49;102674.47;;;8.27;100.00
79455;BME280;68900;52.134;5.420;2024-01-30T08:36:20;102675.06;;;8.32;100.00
79455;BME280;68900;52.134;5.420;2024-01-30T08:38:48;102673.09;;;8.36;100.00
79455;BME280;68900;52.134;5.420;2024-01-30T08:41:15;102674.56;;;8.41;100.00
79455;BME280;68900;52.134;5.420;2024-01-30T08:44:02;102679.66;;;8.46;100.00
79455;BME280;68900;52.134;5.420;2024-01-30T08:46:29;102671.41;;;8.49;100.00
79455;BME280;68900;52.134;5.420;2024-01-30T08:48:57;102674.69;;;8.54;100.00
79455;BME280;68900;52.134;5.420;2024-01-30T08:51:24;102676.03;;;8.61;100.00
79455;BME280;68900;52.134;5.420;2024-01-30T08:53:53;102673.84;;;8.68;100.00
79455;BME280;68900;52.134;5.420;2024-01-30T08:56:22;102669.03;;;8.73;100.00
79455;BME280;68900;52.134;5.420;2024-01-30T08:58:48;102672.97;;;8.81;100.00
79455;BME280;68900;52.134;5.420;2024-01-30T09:01:25;102682.31;;;8.90;100.00
79455;BME280;68900;52.134;5.420;2024-01-30T09:04:23;102679.91;;;9.00;100.00
79455;BME280;68900;52.134;5.420;2024-01-30T09:06:53;102682.59;;;9.14;100.00
79455;BME280;68900;52.134;5.420;2024-01-30T09:09:50;102683.34;;;9.30;100.00
79455;BME280;68900;52.134;5.420;2024-01-30T09:12:32;102679.88;;;9.42;100.00
79455;BME280;68900;52.134;5.420;2024-01-30T09:14:59;102671.59;;;9.45;100.00
79455;BME280;68900;52.134;5.420;2024-01-30T09:17:26;102672.53;;;9.58;100.00
79455;BME280;68900;52.134;5.420;2024-01-30T09:19:56;102682.31;;;9.73;100.00
79455;BME280;68900;52.134;5.420;2024-01-30T09:22:26;102694.53;;;9.79;100.00
79455;BME280;68900;52.134;5.420;2024-01-30T09:24:52;102691.72;;;9.81;100.00
79455;BME280;68900;52.134;5.420;2024-01-30T09:27:19;102684.41;;;9.83;100.00
79455;BME280;68900;52.134;5.420;2024-01-30T09:29:47;102699.50;;;9.85;100.00
79455;BME280;68900;52.134;5.420;2024-01-30T09:32:14;102690.38;;;9.88;100.00
79455;BME280;68900;52.134;5.420;2024-01-30T09:34:40;102692.66;;;9.94;100.00
79455;BME280;68900;52.134;5.420;2024-01-30T09:37:07;102691.66;;;9.95;100.00
79455;BME280;68900;52.134;5.420;2024-01-30T09:39:34;102700.75;;;9.94;100.00
79455;BME280;68900;52.134;5.420;2024-01-30T09:44:53;102703.75;;;9.89;100.00
79455;BME280;68900;52.134;5.420;2024-01-30T09:47:19;102700.63;;;9.95;100.00
79455;BME280;68900;52.134;5.420;2024-01-30T09:49:46;102712.75;;;10.02;100.00
79455;BME280;68900;52.134;5.420;2024-01-30T09:52:14;102713.31;;;10.07;100.00
79455;BME280;68900;52.134;5.420;2024-01-30T09:54:42;102715.25;;;10.05;100.00
79455;BME280;68900;52.134;5.420;2024-01-30T09:57:11;102711.88;;;10.02;100.00
79455;BME280;68900;52.134;5.420;2024-01-30T09:59:43;102712.94;;;9.99;100.00
79455;BME280;68900;52.134;5.420;2024-01-30T10:02:10;102713.06;;;9.98;100.00
79455;BME280;68900;52.134;5.420;2024-01-30T10:04:37;102719.88;;;10.03;100.00
79455;BME280;68900;52.134;5.420;2024-01-30T10:07:03;102716.31;;;10.03;100.00
79455;BME280;68900;52.134;5.420;2024-01-30T10:09:32;102726.31;;;10.01;100.00
79455;BME280;68900;52.134;5.420;2024-01-30T10:12:01;102718.25;;;10.01;100.00
79455;BME280;68900;52.134;5.420;2024-01-30T10:14:29;102705.63;;;10.01;100.00
79455;BME280;68900;52.134;5.420;2024-01-30T10:17:00;102719.03;;;10.03;100.00
79455;BME280;68900;52.134;5.420;2024-01-30T10:19:42;102715.03;;;10.08;100.00
79455;BME280;68900;52.134;5.420;2024-01-30T10:22:21;102721.84;;;10.14;100.00
79455;BME280;68900;52.134;5.420;2024-01-30T10:32:35;102708.34;;;10.28;100.00
79455;BME280;68900;52.134;5.420;2024-01-30T10:35:05;102713.41;;;10.33;100.00
79455;BME280;68900;52.134;5.420;2024-01-30T10:37:34;102723.16;;;10.35;100.00
79455;BME280;68900;52.134;5.420;2024-01-30T10:40:05;102712.06;;;10.40;100.00
79455;BME280;68900;52.134;5.420;2024-01-30T10:42:44;102705.91;;;10.50;100.00
79455;BME280;68900;52.134;5.420;2024-01-30T10:45:15;102708.28;;;10.55;100.00
79455;BME280;68900;52.134;5.420;2024-01-30T10:47:55;102717.06;;;10.58;100.00
79455;BME280;68900;52.134;5.420;2024-01-30T10:50:25;102727.84;;;10.58;100.00
79455;BME280;68900;52.134;5.420;2024-01-30T10:52:53;102712.81;;;10.54;99.82
79455;BME280;68900;52.134;5.420;2024-01-30T10:55:38;102720.59;;;10.59;99.89
79455;BME280;68900;52.134;5.420;2024-01-30T10:58:34;102726.78;;;10.61;99.05
79455;BME280;68900;52.134;5.420;2024-01-30T11:01:08;102725.03;;;10.60;99.01
79455;BME280;68900;52.134;5.420;2024-01-30T11:03:35;102731.75;;;10.67;98.88
79455;BME280;68900;52.134;5.420;2024-01-30T11:06:03;102720.97;;;10.67;98.21
79455;BME280;68900;52.134;5.420;2024-01-30T11:09:03;102727.09;;;10.69;97.44
79455;BME280;68900;52.134;5.420;2024-01-30T11:11:30;102740.03;;;10.64;97.03
79455;BME280;68900;52.134;5.420;2024-01-30T11:14:00;102724.72;;;10.64;96.58
79455;BME280;68900;52.134;5.420;2024-01-30T11:16:31;102729.06;;;10.80;96.24
79455;BME280;68900;52.134;5.420;2024-01-30T11:19:00;102739.88;;;10.92;96.34
79455;BME280;68900;52.134;5.420;2024-01-30T11:21:27;102734.16;;;10.97;96.61
79455;BME280;68900;52.134;5.420;2024-01-30T11:23:54;102724.75;;;11.02;96.71
79455;BME280;68900;52.134;5.420;2024-01-30T11:26:27;102721.84;;;11.05;95.35
79455;BME280;68900;52.134;5.420;2024-01-30T11:28:55;102727.91;;;11.09;95.28
79455;BME280;68900;52.134;5.420;2024-01-30T11:31:21;102735.78;;;11.12;94.58
79455;BME280;68900;52.134;5.420;2024-01-30T11:33:52;102740.53;;;11.08;94.86
79455;BME280;68900;52.134;5.420;2024-01-30T11:36:24;102733.50;;;11.06;93.27
79455;BME280;68900;52.134;5.420;2024-01-30T11:38:52;102750.91;;;11.02;92.98
79455;BME280;68900;52.134;5.420;2024-01-30T11:41:19;102762.13;;;10.96;92.63
79455;BME280;68900;52.134;5.420;2024-01-30T11:43:53;102760.06;;;10.87;92.52
79455;BME280;68900;52.134;5.420;2024-01-30T11:46:20;102764.16;;;10.80;90.99
79455;BME280;68900;52.134;5.420;2024-01-30T11:48:49;102765.56;;;10.73;91.82
79455;BME280;68900;52.134;5.420;2024-01-30T11:51:16;102763.28;;;10.67;91.18
79455;BME280;68900;52.134;5.420;2024-01-30T11:53:49;102767.16;;;10.62;91.11
79455;BME280;68900;52.134;5.420;2024-01-30T11:56:16;102770.25;;;10.56;91.00
79455;BME280;68900;52.134;5.420;2024-01-30T11:58:44;102780.72;;;10.48;91.22
79455;BME280;68900;52.134;5.420;2024-01-30T12:01:16;102770.31;;;10.42;91.50
79455;BME280;68900;52.134;5.420;2024-01-30T12:06:40;102772.59;;;10.36;91.24
79455;BME280;68900;52.134;5.420;2024-01-30T12:09:08;102774.59;;;10.32;90.50
79455;BME280;68900;52.134;5.420;2024-01-30T12:11:46;102771.16;;;10.30;91.69
79455;BME280;68900;52.134;5.420;2024-01-30T12:14:13;102773.94;;;10.29;91.07
79455;BME280;68900;52.134;5.420;2024-01-30T12:16:40;102783.22;;;10.25;91.37
79455;BME280;68900;52.134;5.420;2024-01-30T12:19:30;102781.25;;;10.27;91.73
79455;BME280;68900;52.134;5.420;2024-01-30T12:22:10;102790.44;;;10.24;91.53
79455;BME280;68900;52.134;5.420;2024-01-30T12:24:41;102789.66;;;10.22;90.89
79455;BME280;68900;52.134;5.420;2024-01-30T12:27:23;102798.22;;;10.14;90.14
79455;BME280;68900;52.134;5.420;2024-01-30T12:42:26;102828.16;;;9.69;91.77
79455;BME280;68900;52.134;5.420;2024-01-30T12:45:41;102832.75;;;9.67;91.25
79455;BME280;68900;52.134;5.420;2024-01-30T12:48:32;102812.28;;;9.64;91.32
79455;BME280;68900;52.134;5.420;2024-01-30T12:51:12;102821.31;;;9.63;91.03
79455;BME280;68900;52.134;5.420;2024-01-30T12:53:39;102829.69;;;9.59;90.10
79455;BME280;68900;52.134;5.420;2024-01-30T12:56:06;102826.97;;;9.59;90.91
79455;BME280;68900;52.134;5.420;2024-01-30T12:58:33;102833.25;;;9.59;90.37
79455;BME280;68900;52.134;5.420;2024-01-30T13:01:00;102825.25;;;9.58;90.62
79455;BME280;68900;52.134;5.420;2024-01-30T13:03:27;102832.38;;;9.59;90.39
79455;BME280;68900;52.134;5.420;2024-01-30T13:05:56;102826.13;;;9.58;89.95
79455;BME280;68900;52.134;5.420;2024-01-30T13:08:22;102832.38;;;9.59;90.89
79455;BME280;68900;52.134;5.420;2024-01-30T13:10:49;102820.72;;;9.58;90.20
79455;BME280;68900;52.134;5.420;2024-01-30T13:13:16;102825.25;;;9.58;90.55
79455;BME280;68900;52.134;5.420;2024-01-30T13:15:47;102841.41;;;9.58;90.86
79455;BME280;68900;52.134;5.420;2024-01-30T13:18:14;102827.19;;;9.56;89.81
79455;BME280;68900;52.134;5.420;2024-01-30T13:20:40;102815.75;;;9.52;90.47
79455;BME280;68900;52.134;5.420;2024-01-30T13:23:09;102827.75;;;9.47;90.72
79455;BME280;68900;52.134;5.420;2024-01-30T13:25:36;102825.25;;;9.44;91.65